Página principal
METAR-TAF:

METAR-TAF

Aeroportos :

Tunes, Tunísia

Aeroporto Internacional de Túnis-Cartago

latitude: 36-50N, longitude: 010-14E, altura: 3 m

Observação actual do tempo

O boletim foi feito há 20 minutos, às 15:00 UTC
Vento 12 kt de oeste, variando entre oes-sudoeste e oes-noroeste
Temperatura 17°C
Humidade 52%
Pressão 1024 hPa
Visibilidade 10 km ou mais
Poucas nuvensa uma altura de 2600 ft

METAR: DTTA 161500Z 27012KT 240V300 9999 FEW026 17/07 Q1024 NOSIG

Hora: 16:20 (15:20 UTC)

Previsão

O boletim foi feito há 4 horas e 20 minutos, às 11:00 UTC
Previsão válida de 16 às 12 UTC a 17 às 12 UTC
Vento 13 kt de sudoeste
Visibilidade 10 km ou mais
Nuvens dispersasa uma altura de 2600 ft
Tornando-se
de 16 às 18 UTC a 16 às 20 UTC
Vento 5 kt de sul
Tornando-se
de 17 às 07 UTC a 17 às 09 UTC
Vento 16 kt de oes-sudoeste
Visibilidade 10 km ou mais
Poucas nuvensa uma altura de 2000 ft

TAF: DTTA 161100Z 1612/1712 23013KT 9999 SCT026 BECMG 1618/1620 19005KT BECMG 1707/1709 25016KT 9999 FEW020

Observações e previsões do tempo de mais de 4000 aeroportos (mensagens METAR e TAF).

As estações disponíveis são os pontos amarelos e vermelhos sobre o mapa.

Mova o rato sobre o mapa para ver o nome da estação.

Depois clique no ponto para visualizar as observações e previsões meteorológicas.

Para alterar o mapa : clique nos botões verdes com uma cruz preta para aumentar o zoom; no botão verde com uma pitada de zoom; ou nas setas verdes para mapas adjacentes.


METAR-TAF: